createdAt,value
2023-03-12T00:01:41.561Z,94871.97
2023-03-12T00:05:26.208Z,94869.06
2023-03-12T00:09:09.191Z,94873.59
2023-03-12T00:12:51.844Z,94860.97
2023-03-12T00:16:34.585Z,94857.72
2023-03-12T00:20:17.796Z,94866.16
2023-03-12T00:24:01.820Z,94864.53
2023-03-12T00:27:44.776Z,94857.06
2023-03-12T00:31:30.064Z,94851.41
2023-03-12T00:35:12.796Z,94866.47
2023-03-12T00:38:58.378Z,94868.09
2023-03-12T00:42:42.412Z,94873.94
2023-03-12T00:46:25.373Z,94876.88
2023-03-12T00:50:08.996Z,94865.84
2023-03-12T00:53:51.666Z,94864.22
2023-03-12T00:57:34.381Z,94860.97
2023-03-12T01:01:18.629Z,94872.31
2023-03-12T01:05:01.283Z,94868.13
2023-03-12T01:08:43.985Z,94861.94
2023-03-12T01:12:26.669Z,94860.00
2023-03-12T01:16:09.723Z,94870.53
2023-03-12T01:19:53.805Z,94866.16
2023-03-12T01:23:36.461Z,94858.06
2023-03-12T01:27:20.373Z,94866.16
2023-03-12T01:31:08.065Z,94871.16
2023-03-12T01:34:50.879Z,94873.25
2023-03-12T01:38:34.892Z,94872.13
2023-03-12T01:42:17.574Z,94882.69
2023-03-12T01:46:05.801Z,94882.03
2023-03-12T01:49:49.682Z,94887.06
2023-03-12T01:53:34.225Z,94871.34
2023-03-12T01:57:19.472Z,94863.91
2023-03-12T02:01:02.160Z,94867.78
2023-03-12T02:04:46.981Z,94861.31
2023-03-12T02:08:29.749Z,94867.94
2023-03-12T02:12:14.406Z,94875.25
2023-03-12T02:15:57.110Z,94890.81
2023-03-12T02:19:44.977Z,94888.84
2023-03-12T02:23:31.586Z,94883.34
2023-03-12T02:27:15.676Z,94890.16
2023-03-12T02:31:00.564Z,94900.19
2023-03-12T02:34:43.231Z,94905.72
2023-03-12T02:38:40.373Z,94901.50
2023-03-12T02:42:25.242Z,94901.00
2023-03-12T02:46:09.394Z,94902.44
2023-03-12T02:49:53.583Z,94900.00
2023-03-12T02:53:36.245Z,94904.53
2023-03-12T02:57:18.967Z,94906.13
2023-03-12T03:01:03.130Z,94908.88
2023-03-12T03:04:45.889Z,94905.31
2023-03-12T03:08:29.111Z,94909.53
2023-03-12T03:12:11.719Z,94914.41
2023-03-12T03:15:54.431Z,94909.88
2023-03-12T03:19:38.498Z,94909.88
2023-03-12T03:23:21.165Z,94917.31
2023-03-12T03:27:03.832Z,94922.19
2023-03-12T03:30:47.294Z,94914.41
2023-03-12T03:34:30.021Z,94922.19
2023-03-12T03:38:14.059Z,94922.19
2023-03-12T03:41:56.982Z,94917.81
2023-03-12T03:45:39.697Z,94921.75
2023-03-12T03:49:22.620Z,94923.19
2023-03-12T03:53:05.615Z,94923.84
2023-03-12T03:56:49.652Z,94916.41
2023-03-12T04:00:32.454Z,94929.84
2023-03-12T04:04:15.150Z,94927.75
2023-03-12T04:08:02.981Z,94937.50
2023-03-12T04:11:45.623Z,94935.53
2023-03-12T04:15:29.631Z,94948.34
2023-03-12T04:19:12.305Z,94935.22
2023-03-12T04:22:55.032Z,94945.09
2023-03-12T04:26:37.727Z,94957.91
2023-03-12T04:30:20.566Z,94950.63
2023-03-12T04:34:04.737Z,94954.66
2023-03-12T04:37:47.470Z,94950.44
2023-03-12T04:41:30.118Z,94944.28
2023-03-12T04:45:13.059Z,94955.31
2023-03-12T04:48:55.763Z,94944.28
2023-03-12T04:52:40.342Z,94951.44
2023-03-12T04:56:23.297Z,94943.97
2023-03-12T05:00:10.832Z,94922.56
2023-03-12T05:03:53.933Z,94928.75
2023-03-12T05:07:36.658Z,94924.38
2023-03-12T05:11:21.600Z,94924.03
2023-03-12T05:15:04.700Z,94920.31
2023-03-12T05:18:47.775Z,94919.00
2023-03-12T05:22:30.498Z,94928.25
2023-03-12T05:26:18.400Z,94913.00
2023-03-12T05:30:02.617Z,94917.22
2023-03-12T05:33:45.522Z,94924.19
2023-03-12T05:37:28.214Z,94931.66
2023-03-12T05:41:21.367Z,94924.84
2023-03-12T05:45:06.623Z,94929.56
2023-03-12T05:48:49.334Z,94937.66
2023-03-12T05:52:31.975Z,94938.78
2023-03-12T05:56:17.507Z,94947.38
2023-03-12T06:00:00.183Z,94950.50
2023-03-12T06:03:44.365Z,94947.56
2023-03-12T06:07:27.085Z,94944.00
2023-03-12T06:11:10.033Z,94935.25
2023-03-12T06:14:52.707Z,94930.38
2023-03-12T06:18:36.174Z,94922.91
2023-03-12T06:22:20.221Z,94927.94
2023-03-12T06:26:02.862Z,94920.66
2023-03-12T06:29:46.484Z,94924.38
2023-03-12T06:33:29.242Z,94915.75
2023-03-12T06:37:12.397Z,94926.28
2023-03-12T06:40:57.566Z,94925.31
2023-03-12T06:44:40.219Z,94927.41
2023-03-12T06:48:23.154Z,94941.69
2023-03-12T06:52:06.396Z,94942.00
2023-03-12T06:55:51.046Z,94958.06
2023-03-12T06:59:35.092Z,94956.28
2023-03-12T07:03:18.012Z,94958.56
2023-03-12T07:07:00.721Z,94960.66
2023-03-12T07:10:43.468Z,94966.00
2023-03-12T07:14:26.651Z,94970.06
2023-03-12T07:18:12.471Z,94964.03
2023-03-12T07:21:55.156Z,94950.72
2023-03-12T07:25:38.554Z,94964.19
2023-03-12T07:29:21.254Z,94962.72
2023-03-12T07:33:04.857Z,94964.31
2023-03-12T07:36:49.072Z,94969.47
2023-03-12T07:40:32.381Z,94968.78
2023-03-12T07:44:15.054Z,94953.19
2023-03-12T07:47:57.904Z,94955.44
2023-03-12T07:51:40.690Z,94964.19
2023-03-12T07:55:24.742Z,94965.47
2023-03-12T07:59:07.629Z,94955.03
2023-03-12T08:02:50.520Z,94956.78
2023-03-12T08:06:38.544Z,94976.91
2023-03-12T08:10:22.389Z,94973.78
2023-03-12T08:14:06.729Z,94981.88
2023-03-12T08:17:49.437Z,94979.91
2023-03-12T08:21:32.132Z,94985.59
2023-03-12T08:25:14.829Z,94982.00
2023-03-12T08:28:57.725Z,94975.66
2023-03-12T08:32:41.974Z,94980.88
2023-03-12T08:36:24.752Z,94988.34
2023-03-12T08:40:13.085Z,94983.16
2023-03-12T08:43:55.970Z,94989.66
2023-03-12T08:47:41.497Z,95002.28
2023-03-12T08:51:25.779Z,95004.88
2023-03-12T08:55:09.354Z,95008.75
2023-03-12T08:58:52.095Z,95006.78
2023-03-12T09:02:34.778Z,95006.69
2023-03-12T09:06:19.342Z,95012.00
2023-03-12T09:10:03.762Z,95005.47
2023-03-12T09:17:50.591Z,95008.66
2023-03-12T09:21:33.333Z,95005.75
2023-03-12T09:25:17.920Z,95006.69
2023-03-12T09:29:00.582Z,95005.41
2023-03-12T09:32:44.674Z,95015.34
2023-03-12T09:36:27.430Z,95018.94
2023-03-12T09:40:13.922Z,95019.19
2023-03-12T09:43:59.874Z,95027.22
2023-03-12T09:47:48.189Z,95032.47
2023-03-12T09:51:35.340Z,95023.09
2023-03-12T09:55:20.093Z,95019.25
2023-03-12T09:59:04.323Z,95021.53
2023-03-12T10:03:09.722Z,95025.00
2023-03-12T10:06:57.196Z,95024.88
2023-03-12T10:10:48.522Z,95027.34
2023-03-12T10:14:43.788Z,95022.78
2023-03-12T10:18:37.539Z,95008.97
2023-03-12T10:22:29.074Z,95019.66
2023-03-12T10:26:15.956Z,95018.56
2023-03-12T10:30:00.381Z,95012.91
2023-03-12T10:33:48.709Z,95009.41
2023-03-12T10:37:34.500Z,95016.22
2023-03-12T10:41:19.470Z,95025.97
2023-03-12T10:45:17.527Z,95024.03
2023-03-12T10:49:24.668Z,95025.34
2023-03-12T10:53:15.795Z,95016.06
2023-03-12T10:56:58.524Z,95014.16
2023-03-12T11:00:42.541Z,95013.66
2023-03-12T11:04:29.946Z,95010.88
2023-03-12T11:08:24.199Z,95018.38
2023-03-12T11:12:24.595Z,95009.97
2023-03-12T11:16:31.418Z,95019.72
2023-03-12T11:20:28.259Z,95014.50
2023-03-12T11:24:12.488Z,95011.19
2023-03-12T11:27:56.781Z,95008.41
2023-03-12T11:31:46.996Z,95008.34
2023-03-12T11:35:35.376Z,95003.13
2023-03-12T11:39:25.434Z,95007.44
2023-03-12T11:43:40.031Z,94993.22
2023-03-12T11:47:38.129Z,94989.53
2023-03-12T11:51:28.667Z,94997.75
2023-03-12T11:55:19.481Z,94987.63
2023-03-12T11:59:14.092Z,94987.72
2023-03-12T12:03:28.525Z,94984.66
2023-03-12T12:07:18.814Z,94980.88
2023-03-12T12:11:06.138Z,94973.31
2023-03-12T12:14:59.236Z,94989.47
2023-03-12T12:18:54.080Z,94987.78
2023-03-12T12:22:45.398Z,94981.03
2023-03-12T12:26:33.646Z,94986.34
2023-03-12T12:30:20.222Z,94982.66
2023-03-12T12:34:32.637Z,94980.38
2023-03-12T12:38:22.450Z,94978.44
2023-03-12T12:42:06.946Z,94974.09
2023-03-12T12:45:51.336Z,94985.41
2023-03-12T12:49:37.625Z,94969.03
2023-03-12T12:53:25.233Z,94971.50
2023-03-12T12:57:12.921Z,94972.38
2023-03-12T13:00:57.179Z,94973.25
2023-03-12T13:04:41.070Z,94968.88
2023-03-12T13:08:38.001Z,94967.75
2023-03-12T13:12:26.760Z,94953.91
2023-03-12T13:16:22.394Z,94963.50
2023-03-12T13:20:15.519Z,94961.34
2023-03-12T13:24:08.525Z,94959.81
2023-03-12T13:27:59.106Z,94967.34
2023-03-12T13:31:43.976Z,94970.97
2023-03-12T13:35:31.595Z,94975.88
2023-03-12T13:39:31.947Z,94966.44
2023-03-12T13:43:16.645Z,94973.13
2023-03-12T13:47:00.587Z,94968.22
2023-03-12T13:50:52.368Z,94971.84
2023-03-12T13:54:41.593Z,94973.09
2023-03-12T13:58:24.309Z,94974.72
2023-03-12T14:02:17.820Z,94978.72
2023-03-12T14:06:02.032Z,94977.13
2023-03-12T14:09:48.804Z,94979.94
2023-03-12T14:13:43.715Z,94965.44
2023-03-12T14:17:28.198Z,94968.91
2023-03-12T14:21:16.002Z,94974.97
2023-03-12T14:25:04.192Z,94971.72
2023-03-12T14:28:47.569Z,94966.22
2023-03-12T14:32:32.786Z,94963.69
2023-03-12T14:36:18.469Z,94970.22
2023-03-12T14:40:05.611Z,94967.13
2023-03-12T14:43:52.442Z,94963.09
2023-03-12T14:47:41.842Z,94967.13
2023-03-12T14:51:26.144Z,94955.56
2023-03-12T14:55:15.484Z,94948.94
2023-03-12T14:58:59.172Z,94958.13
2023-03-12T15:02:43.237Z,94962.84
2023-03-12T15:06:30.073Z,94952.41
2023-03-12T15:10:21.834Z,94961.50
2023-03-12T15:14:06.273Z,94953.44
2023-03-12T15:17:49.601Z,94963.75
2023-03-12T15:21:34.102Z,94960.13
2023-03-12T15:25:24.549Z,94969.22
2023-03-12T15:29:26.211Z,94963.78
2023-03-12T15:33:11.677Z,94976.31
2023-03-12T15:36:55.271Z,94976.72
2023-03-12T15:40:39.342Z,94971.09
2023-03-12T15:44:23.639Z,94966.47
2023-03-12T15:48:17.498Z,94973.13
2023-03-12T15:52:03.460Z,94972.09
2023-03-12T15:56:03.048Z,94971.50
2023-03-12T15:59:45.852Z,94968.88
2023-03-12T16:03:28.467Z,94976.16
2023-03-12T16:07:14.511Z,94963.44
2023-03-12T16:10:58.526Z,94969.88
2023-03-12T16:14:41.245Z,94968.69
2023-03-12T16:18:24.731Z,94969.69
2023-03-12T16:22:07.523Z,94975.94
2023-03-12T16:25:52.003Z,94980.38
2023-03-12T16:29:38.577Z,94982.41
2023-03-12T16:33:23.225Z,94984.41
2023-03-12T16:37:05.964Z,94986.44
2023-03-12T16:40:50.298Z,94981.59
2023-03-12T16:44:37.017Z,94976.56
2023-03-12T16:48:22.016Z,94994.53
2023-03-12T16:52:17.036Z,94979.78
2023-03-12T16:56:01.787Z,94996.53
2023-03-12T16:59:45.826Z,94990.28
2023-03-12T17:03:35.513Z,94994.53
2023-03-12T17:07:18.929Z,95009.84
2023-03-12T17:11:01.632Z,95020.09
2023-03-12T17:14:45.670Z,95017.84
2023-03-12T17:18:28.461Z,95012.66
2023-03-12T17:22:11.243Z,95026.13
2023-03-12T17:25:53.922Z,95018.16
2023-03-12T17:29:36.655Z,95019.53
2023-03-12T17:33:20.730Z,95015.09
2023-03-12T17:37:03.516Z,95025.50
2023-03-12T17:40:46.433Z,95023.06
2023-03-12T17:44:34.379Z,95025.47
2023-03-12T17:48:17.504Z,95030.09
2023-03-12T17:52:03.064Z,95018.38
2023-03-12T17:55:47.297Z,95021.34
2023-03-12T17:59:29.997Z,95028.19
2023-03-12T18:03:12.812Z,95039.25
2023-03-12T18:06:55.522Z,95047.47
2023-03-12T18:10:42.510Z,95039.41
2023-03-12T18:14:25.297Z,95045.03
2023-03-12T18:18:08.083Z,95040.16
2023-03-12T18:21:50.796Z,95053.84
2023-03-12T18:25:33.481Z,95040.53
2023-03-12T18:29:17.581Z,95039.72
2023-03-12T18:33:00.428Z,95036.88
2023-03-12T18:36:43.186Z,95030.03
2023-03-12T18:40:27.594Z,95034.03
2023-03-12T18:44:10.508Z,95038.03
2023-03-12T18:47:54.616Z,95034.41
2023-03-12T18:51:40.266Z,95040.03
2023-03-12T18:55:22.919Z,95041.81
2023-03-12T18:59:05.731Z,95045.19
2023-03-12T19:02:48.923Z,95044.59
2023-03-12T19:06:44.323Z,95049.19
2023-03-12T19:10:32.648Z,95058.41
2023-03-12T19:14:15.405Z,95055.16
2023-03-12T19:17:58.395Z,95066.81
2023-03-12T19:21:42.404Z,95076.47
2023-03-12T19:25:25.143Z,95069.63
2023-03-12T19:29:07.885Z,95076.47
2023-03-12T19:32:50.565Z,95082.91
2023-03-12T19:36:33.324Z,95087.72
2023-03-12T19:40:17.652Z,95089.72
2023-03-12T19:44:00.296Z,95088.91
2023-03-12T19:47:43.096Z,95080.06
2023-03-12T19:51:26.163Z,95086.47
2023-03-12T19:55:10.968Z,95075.78
2023-03-12T19:58:54.982Z,95083.81
2023-03-12T20:02:38.770Z,95097.75
2023-03-12T20:06:21.560Z,95099.41
2023-03-12T20:10:05.621Z,95098.56
2023-03-12T20:13:48.305Z,95106.66
2023-03-12T20:17:32.436Z,95112.25
2023-03-12T20:21:15.103Z,95112.63
2023-03-12T20:24:57.846Z,95113.63
2023-03-12T20:28:40.557Z,95109.41
2023-03-12T20:32:23.547Z,95114.00
2023-03-12T20:36:09.278Z,95113.38
2023-03-12T20:39:51.971Z,95104.16
2023-03-12T20:43:34.705Z,95100.94
2023-03-12T20:47:17.380Z,95096.94
2023-03-12T20:51:00.049Z,95101.34
2023-03-12T20:54:44.245Z,95096.94
2023-03-12T20:58:26.910Z,95096.56
2023-03-12T21:02:13.347Z,95098.38
2023-03-12T21:05:56.824Z,95107.63
2023-03-12T21:09:39.756Z,95106.66
2023-03-12T21:13:24.738Z,95100.22
2023-03-12T21:17:09.010Z,95107.19
2023-03-12T21:20:51.759Z,95116.66
2023-03-12T21:24:34.504Z,95107.78
2023-03-12T21:28:18.165Z,95116.66
2023-03-12T21:32:02.203Z,95123.88
2023-03-12T21:35:45.095Z,95122.66
2023-03-12T21:39:28.107Z,95132.50
2023-03-12T21:43:11.091Z,95133.91
2023-03-12T21:46:53.759Z,95129.66
2023-03-12T21:50:37.792Z,95134.28
2023-03-12T21:54:20.538Z,95134.66
2023-03-12T21:58:03.225Z,95125.38
2023-03-12T22:01:46.658Z,95127.19
2023-03-12T22:05:29.393Z,95115.72
2023-03-12T22:09:15.472Z,95113.28
2023-03-12T22:13:04.084Z,95107.25
2023-03-12T22:16:46.759Z,95114.06
2023-03-12T22:20:29.400Z,95120.09
2023-03-12T22:24:13.680Z,95122.53
2023-03-12T22:27:56.401Z,95118.91
2023-03-12T22:31:39.263Z,95119.72
2023-03-12T22:35:25.737Z,95117.91
2023-03-12T22:39:08.472Z,95105.63
2023-03-12T22:42:52.924Z,95101.25
2023-03-12T22:46:35.773Z,95091.16
2023-03-12T22:50:18.701Z,95096.53
2023-03-12T22:54:01.388Z,95088.44
2023-03-12T22:57:44.111Z,95087.81
2023-03-12T23:01:28.201Z,95080.94
2023-03-12T23:05:11.245Z,95088.19
2023-03-12T23:08:55.653Z,95081.75
2023-03-12T23:12:38.382Z,95073.25
2023-03-12T23:16:23.015Z,95060.94
2023-03-12T23:20:09.461Z,95057.03
2023-03-12T23:23:52.506Z,95042.16
2023-03-12T23:27:35.209Z,95056.22
2023-03-12T23:31:18.101Z,95048.13
2023-03-12T23:35:00.825Z,95039.66
2023-03-12T23:38:45.270Z,95038.06
2023-03-12T23:42:28.323Z,95039.66
2023-03-12T23:46:12.842Z,95035.56
2023-03-12T23:49:55.613Z,95026.31
2023-03-12T23:53:39.192Z,95030.25
2023-03-12T23:57:23.195Z,95026.91
